CheckWX is a tool to help pilots better visualize weather data.  It is not intended as a substitute for an official pre-flight weather briefing.

05:34:23 UTC

VDSR METAR
Siem Reap International Airport
Siem Reap, Cambodia
Current

34 mins ago

VDSR 210500Z VRB03KT 9999 SCT015 SCT040 28/20 Q1012
Observed
Nov-21 @ 05:00 UTC
Wind
  • Variable at 3 KTS
Visibility
10,000+ meters
Flight Rules
VFR
Cloud Levels
  • Scattered at 1,500' AGL
  • Scattered at 4,000' AGL
Temperature
28°C / 82°F
Dewpoint
20°C / 68°F
Heat Index
29°C / 85°F
Humidity
62%
Altimeter
29.88" Hg
Pressure
1011.92 hPa
Previous

1 hour ago

VDSR 210430Z 29006KT 250V330 9999 SCT015 SCT040 28/21 Q1013
Observed
Nov-21 @ 04:30 UTC
Wind
  • 290° at 6 KTS
Visibility
10,000+ meters
Flight Rules
VFR
Cloud Levels
  • Scattered at 1,500' AGL
  • Scattered at 4,000' AGL
Temperature
28°C / 82°F
Dewpoint
21°C / 70°F
Heat Index
30°C / 86°F
Humidity
66%
Altimeter
29.91" Hg
Pressure
1012.92 hPa
Previous

2 hours ago

VDSR 210400Z 33004KT 300V360 9999 SCT015 SCT040 27/21 Q1013
Observed
Nov-21 @ 04:00 UTC
Wind
  • 330° at 4 KTS
Visibility
10,000+ meters
Flight Rules
VFR
Cloud Levels
  • Scattered at 1,500' AGL
  • Scattered at 4,000' AGL
Temperature
27°C / 81°F
Dewpoint
21°C / 70°F
Heat Index
29°C / 85°F
Humidity
70%
Altimeter
29.91" Hg
Pressure
1012.92 hPa